Time;durP1;ratioP1;P1;durP2;ratioP2;P2;SDS_P1;SDS_P2;PMS_P1;PMS_P2;Temp;Humidity;BMP_temperature;BMP_pressure;BME280_temperature;BME280_humidity;BME280_pressure;Samples;Min_cycle;Max_cycle;Signal;HPM_P1;HPM_P2
2022/08/15 00:01:10;;;;;;;15.07;11.52;;;23.80;99.90;;;;;;6190575;23;20389;-78
2022/08/15 00:03:45;;;;;;;15.38;12.10;;;23.60;99.90;;;;;;6191309;23;20441;-77
2022/08/15 00:06:25;;;;;;;13.13;11.50;;;24.00;99.90;;;;;;6216675;23;20839;-77
2022/08/15 00:08:54;;;;;;;14.05;12.25;;;23.40;99.90;;;;;;6217189;23;20376;-78
2022/08/15 00:11:27;;;;;;;12.52;10.82;;;23.70;99.90;;;;;;6215435;23;20373;-78
2022/08/15 00:13:57;;;;;;;13.43;11.67;;;23.30;99.90;;;;;;6217066;23;20409;-78
2022/08/15 00:16:23;;;;;;;14.65;11.07;;;23.50;99.90;;;;;;6216278;23;20828;-79
2022/08/15 00:18:49;;;;;;;13.13;10.83;;;23.60;99.90;;;;;;6216946;23;20424;-79
2022/08/15 00:21:19;;;;;;;13.00;11.70;;;23.50;99.90;;;;;;6189585;23;20361;-79
2022/08/15 00:23:44;;;;;;;13.35;11.77;;;23.20;99.90;;;;;;6215103;23;20451;-79
2022/08/15 00:26:12;;;;;;;14.37;12.03;;;23.40;99.90;;;;;;6167400;23;20409;-79
2022/08/15 00:28:37;;;;;;;14.03;11.40;;;23.20;99.90;;;;;;6244082;23;20364;-79
2022/08/15 00:31:05;;;;;;;13.23;11.73;;;23.40;99.90;;;;;;6216145;23;20695;-77
2022/08/15 00:33:32;;;;;;;14.82;11.75;;;23.40;99.90;;;;;;6243127;23;20772;-77
2022/08/15 00:35:58;;;;;;;13.07;10.98;;;22.90;99.90;;;;;;6215536;23;20839;-77
2022/08/15 00:38:27;;;;;;;13.82;11.68;;;23.20;99.90;;;;;;6217159;23;20390;-77
2022/08/15 00:43:48;;;;;;;15.20;12.40;;;22.90;99.90;;;;;;6217473;23;20366;-77
2022/08/15 00:46:15;;;;;;;14.50;13.00;;;22.90;99.90;;;;;;6218903;23;20447;-77
2022/08/15 00:48:44;;;;;;;17.83;14.80;;;23.10;99.90;;;;;;6167650;23;20416;-77
2022/08/15 00:51:12;;;;;;;16.17;14.48;;;22.70;99.90;;;;;;6216691;23;20366;-77
2022/08/15 00:53:41;;;;;;;15.90;14.15;;;22.50;99.90;;;;;;6218887;23;20896;-77
2022/08/15 00:56:08;;;;;;;16.70;14.73;;;22.30;99.90;;;;;;6217760;23;20485;-77
2022/08/15 00:58:34;;;;;;;16.05;14.25;;;22.20;99.90;;;;;;6217203;23;20386;-77
2022/08/15 01:01:01;;;;;;;18.38;14.63;;;22.50;99.90;;;;;;6217944;23;20688;-78
2022/08/15 01:03:32;;;;;;;16.75;15.05;;;22.20;99.90;;;;;;6194056;23;20757;-78
2022/08/15 01:06:00;;;;;;;15.65;14.05;;;22.00;99.90;;;;;;6218286;23;20373;-78
2022/08/15 01:08:34;;;;;;;16.67;13.82;;;21.80;99.90;;;;;;6217406;23;20366;-78
2022/08/15 01:11:12;;;;;;;15.63;13.55;;;21.90;99.90;;;;;;6192804;23;20362;-78
2022/08/15 01:13:39;;;;;;;18.08;14.32;;;22.00;99.90;;;;;;6192013;23;20845;-78
2022/08/15 01:16:05;;;;;;;15.43;13.48;;;21.90;99.90;;;;;;6193218;23;20393;-78
2022/08/15 01:18:31;;;;;;;15.25;13.65;;;22.20;99.90;;;;;;6217417;23;20401;-78
2022/08/15 01:21:03;;;;;;;15.68;14.07;;;22.20;99.90;;;;;;6217476;23;20847;-78
2022/08/15 01:23:57;;;;;;;16.30;13.70;;;22.50;99.90;;;;;;6217530;23;20362;-78
2022/08/15 01:26:25;;;;;;;14.73;13.23;;;22.30;99.90;;;;;;6218189;23;20370;-78
2022/08/15 01:28:53;;;;;;;17.25;13.95;;;22.10;99.90;;;;;;6217693;23;20427;-78
2022/08/15 01:31:21;;;;;;;14.55;13.02;;;22.00;99.90;;;;;;6218428;23;20370;-78
2022/08/15 01:33:57;;;;;;;15.20;13.60;;;22.40;99.90;;;;;;6216673;23;20376;-75
2022/08/15 01:36:27;;;;;;;14.65;13.15;;;21.90;99.90;;;;;;6216841;23;20369;-75
2022/08/15 01:39:14;;;;;;;14.75;13.23;;;22.00;99.90;;;;;;6217514;23;20393;-74
2022/08/15 01:41:52;;;;;;;15.57;13.20;;;21.80;99.90;;;;;;6217973;23;20372;-75
2022/08/15 01:44:43;;;;;;;15.27;13.38;;;22.10;99.90;;;;;;6216503;23;20365;-75
2022/08/15 01:47:33;;;;;;;15.13;13.52;;;21.90;99.90;;;;;;6217997;23;20366;-74
2022/08/15 01:50:19;;;;;;;14.65;13.15;;;22.10;99.90;;;;;;6204955;23;20696;-74
2022/08/15 01:52:54;;;;;;;15.20;13.48;;;22.10;99.90;;;;;;6217623;23;20440;-75
2022/08/15 01:55:26;;;;;;;15.30;13.25;;;22.10;99.90;;;;;;6242671;23;20691;-75
2022/08/15 01:57:52;;;;;;;15.07;13.57;;;22.30;99.90;;;;;;6242646;23;20390;-75
2022/08/15 02:00:18;;;;;;;16.35;13.13;;;22.00;99.90;;;;;;6243606;23;20372;-75
2022/08/15 02:02:45;;;;;;;17.75;13.90;;;22.00;99.90;;;;;;6241630;23;20403;-75
2022/08/15 02:05:10;;;;;;;16.83;13.18;;;21.80;99.90;;;;;;6242244;23;20366;-74
2022/08/15 02:07:37;;;;;;;14.82;13.20;;;22.00;99.90;;;;;;6242722;23;20412;-75
2022/08/15 02:10:04;;;;;;;14.88;13.38;;;21.80;99.90;;;;;;6242684;23;20362;-75
2022/08/15 02:12:35;;;;;;;14.90;13.43;;;21.90;99.90;;;;;;6242661;23;20425;-75
2022/08/15 02:15:06;;;;;;;15.45;13.95;;;21.90;99.90;;;;;;6242989;23;20393;-75
2022/08/15 02:17:32;;;;;;;15.17;13.60;;;22.00;99.90;;;;;;6241629;23;20442;-75
2022/08/15 02:19:59;;;;;;;17.40;13.70;;;21.90;99.90;;;;;;6217695;23;20513;-75
2022/08/15 02:22:26;;;;;;;16.98;13.93;;;22.10;99.90;;;;;;6217305;23;20366;-75
2022/08/15 02:24:56;;;;;;;14.90;13.35;;;22.00;99.90;;;;;;6242354;23;20377;-75
2022/08/15 02:27:23;;;;;;;16.30;14.18;;;21.80;99.90;;;;;;6243009;23;20404;-75
2022/08/15 02:29:49;;;;;;;16.40;14.13;;;22.10;99.90;;;;;;6242670;23;20453;-75
2022/08/15 02:32:17;;;;;;;16.20;14.18;;;21.90;99.90;;;;;;6216876;23;20447;-75
2022/08/15 02:34:45;;;;;;;15.68;13.70;;;21.90;99.90;;;;;;6242559;23;20366;-75
2022/08/15 02:37:18;;;;;;;15.40;13.73;;;21.80;99.90;;;;;;6242256;23;20374;-74
2022/08/15 02:39:48;;;;;;;16.95;14.52;;;21.80;99.90;;;;;;6218547;23;20819;-74
2022/08/15 02:42:15;;;;;;;16.15;14.43;;;22.10;99.90;;;;;;6241963;23;20427;-74
2022/08/15 02:44:42;;;;;;;16.85;15.05;;;22.00;99.90;;;;;;6242964;23;20372;-74
2022/08/15 02:47:09;;;;;;;17.05;15.25;;;21.90;99.90;;;;;;6241700;23;20844;-74
2022/08/15 02:49:36;;;;;;;17.03;14.80;;;21.70;99.90;;;;;;6242727;22;20473;-74
2022/08/15 02:52:03;;;;;;;16.67;14.98;;;21.70;99.90;;;;;;6240213;23;20376;-74
2022/08/15 02:54:29;;;;;;;16.50;14.77;;;21.70;99.90;;;;;;6242931;23;20385;-74
2022/08/15 02:56:56;;;;;;;16.63;14.68;;;21.90;99.90;;;;;;6241462;23;20366;-74
2022/08/15 02:59:22;;;;;;;18.55;14.65;;;21.90;99.90;;;;;;6242317;23;20481;-75
2022/08/15 03:01:49;;;;;;;16.45;14.70;;;21.80;99.90;;;;;;6240936;23;20372;-74
2022/08/15 03:04:23;;;;;;;16.23;14.50;;;;;;;;;;6242871;23;20366;-74
2022/08/15 03:06:52;;;;;;;17.52;14.82;;;21.90;99.90;;;;;;6241428;23;20366;-74
2022/08/15 03:09:19;;;;;;;16.80;14.52;;;21.90;99.90;;;;;;6242619;23;20369;-75
2022/08/15 03:11:45;;;;;;;15.65;14.05;;;21.70;99.90;;;;;;6191081;23;20397;-76
2022/08/15 03:14:14;;;;;;;17.23;15.43;;;21.80;99.90;;;;;;6242559;23;20370;-75
2022/08/15 03:16:42;;;;;;;17.13;14.93;;;21.80;99.90;;;;;;6242271;23;20374;-75
2022/08/15 03:19:10;;;;;;;15.52;13.90;;;21.80;99.90;;;;;;6215989;23;20394;-75
2022/08/15 03:21:37;;;;;;;15.73;14.13;;;;;;;;;;6241898;23;20361;-75
2022/08/15 03:24:04;;;;;;;15.98;14.25;;;21.70;99.90;;;;;;6242162;23;20366;-75
2022/08/15 03:26:30;;;;;;;15.55;13.88;;;21.70;99.90;;;;;;6242219;23;20366;-74
2022/08/15 03:28:57;;;;;;;17.38;14.45;;;21.60;99.90;;;;;;6242225;23;20469;-74
2022/08/15 03:31:23;;;;;;;17.48;14.43;;;21.50;99.90;;;;;;6214915;23;20691;-75
2022/08/15 03:33:49;;;;;;;16.50;14.77;;;21.60;99.90;;;;;;6241804;23;20443;-75
2022/08/15 03:36:19;;;;;;;17.25;15.50;;;21.40;99.90;;;;;;6241699;23;20803;-76
2022/08/15 03:38:46;;;;;;;17.35;15.55;;;21.60;99.90;;;;;;6217359;23;20425;-74
2022/08/15 03:41:13;;;;;;;17.35;15.55;;;21.50;99.90;;;;;;6216058;23;20420;-75
2022/08/15 03:43:41;;;;;;;16.15;14.45;;;21.60;99.90;;;;;;6242016;23;20369;-74
2022/08/15 03:46:13;;;;;;;17.98;15.48;;;21.40;99.90;;;;;;6241352;23;20385;-75
2022/08/15 03:48:44;;;;;;;17.90;15.45;;;21.30;99.90;;;;;;6242065;22;20688;-74
2022/08/15 03:51:11;;;;;;;17.08;14.68;;;21.30;99.90;;;;;;6215342;23;20400;-74
2022/08/15 03:53:44;;;;;;;16.88;15.05;;;21.30;99.90;;;;;;6215874;23;20399;-74
2022/08/15 03:56:14;;;;;;;17.35;15.52;;;21.30;99.90;;;;;;6191645;23;20373;-74
2022/08/15 03:58:40;;;;;;;17.05;15.15;;;;;;;;;;6216969;23;20764;-74
2022/08/15 04:01:11;;;;;;;18.37;15.47;;;21.00;99.90;;;;;;6215273;23;20393;-74
2022/08/15 04:03:36;;;;;;;17.98;16.17;;;21.30;99.90;;;;;;6217076;23;20389;-74
2022/08/15 04:06:07;;;;;;;18.58;16.58;;;21.30;99.90;;;;;;6215782;23;20855;-75
2022/08/15 04:08:33;;;;;;;18.63;16.63;;;21.10;99.90;;;;;;6216310;23;20366;-75
2022/08/15 04:11:01;;;;;;;18.50;15.95;;;21.20;99.90;;;;;;6216856;23;20365;-75
2022/08/15 04:13:28;;;;;;;18.85;16.85;;;;;;;;;;6246079;23;20412;-75
2022/08/15 04:15:59;;;;;;;19.00;16.65;;;21.10;99.90;;;;;;6218581;23;20366;-75
2022/08/15 04:18:27;;;;;;;19.40;16.55;;;21.10;99.90;;;;;;6217269;23;20390;-75
2022/08/15 04:20:59;;;;;;;18.60;16.40;;;21.10;99.90;;;;;;6217144;23;20828;-75
2022/08/15 04:23:27;;;;;;;19.73;16.52;;;21.50;99.90;;;;;;6218550;23;20835;-75
2022/08/15 04:25:53;;;;;;;18.50;16.52;;;21.10;99.90;;;;;;6217440;23;20669;-75
2022/08/15 04:28:20;;;;;;;18.15;16.25;;;;;;;;;;6218888;23;20398;-75
2022/08/15 04:30:47;;;;;;;18.08;16.13;;;21.10;99.90;;;;;;6217449;23;20373;-75
2022/08/15 04:33:20;;;;;;;18.98;16.33;;;21.10;99.90;;;;;;6245739;23;20439;-75
2022/08/15 04:35:49;;;;;;;18.48;15.23;;;21.30;99.90;;;;;;6217716;23;20401;-74
2022/08/15 04:38:15;;;;;;;18.95;16.42;;;21.20;99.90;;;;;;6217607;23;20462;-75
2022/08/15 04:40:42;;;;;;;19.13;17.10;;;21.10;99.90;;;;;;6216889;23;20373;-75
2022/08/15 04:43:08;;;;;;;20.13;16.65;;;21.00;99.90;;;;;;6218224;23;20362;-75
2022/08/15 04:45:35;;;;;;;18.75;16.67;;;21.10;99.90;;;;;;6218670;23;20366;-75
2022/08/15 04:48:04;;;;;;;20.85;16.95;;;21.00;99.90;;;;;;6217104;22;20470;-75
2022/08/15 04:50:34;;;;;;;22.13;16.88;;;21.00;99.90;;;;;;6235181;23;20385;-75
2022/08/15 04:53:00;;;;;;;19.40;17.10;;;21.00;99.90;;;;;;6239949;23;20377;-75
2022/08/15 04:55:28;;;;;;;20.50;18.40;;;21.20;99.90;;;;;;6242298;23;20372;-75
2022/08/15 04:57:55;;;;;;;19.52;16.90;;;21.10;99.90;;;;;;6217777;23;20394;-75
2022/08/15 05:00:25;;;;;;;20.33;16.52;;;21.20;99.90;;;;;;6243259;23;20362;-74
2022/08/15 05:03:04;;;;;;;19.20;16.60;;;21.20;99.90;;;;;;6242493;23;20419;-74
2022/08/15 05:05:33;;;;;;;18.48;16.52;;;21.20;99.90;;;;;;6242672;23;20432;-75
2022/08/15 05:07:58;;;;;;;19.00;16.27;;;21.30;99.90;;;;;;6241941;23;20370;-74
2022/08/15 05:10:25;;;;;;;18.97;16.97;;;21.20;99.90;;;;;;6241743;23;20475;-74
2022/08/15 05:12:52;;;;;;;19.00;17.00;;;21.10;99.90;;;;;;6241851;23;20380;-75
2022/08/15 05:15:19;;;;;;;19.30;17.23;;;21.20;99.90;;;;;;6218306;23;20370;-75
2022/08/15 05:17:45;;;;;;;19.95;17.85;;;21.40;99.90;;;;;;6243276;23;20372;-74
2022/08/15 05:20:13;;;;;;;21.80;17.60;;;21.40;99.90;;;;;;6243349;23;20753;-75
2022/08/15 05:23:05;;;;;;;18.50;16.58;;;21.50;99.90;;;;;;6241947;23;20366;-75
2022/08/15 05:25:33;;;;;;;19.45;17.23;;;21.90;99.90;;;;;;6242926;23;20441;-74
2022/08/15 05:28:00;;;;;;;20.65;17.13;;;21.50;99.90;;;;;;6243381;23;20381;-75
2022/08/15 05:30:26;;;;;;;20.52;18.38;;;21.30;99.90;;;;;;6243694;23;20934;-75
2022/08/15 05:33:21;;;;;;;19.65;17.58;;;21.00;99.90;;;;;;6242676;23;20370;-75
2022/08/15 05:35:52;;;;;;;20.55;18.35;;;21.00;99.90;;;;;;6243445;22;20717;-76
2022/08/15 05:38:29;;;;;;;19.70;17.70;;;21.20;99.90;;;;;;6241618;23;20465;-75
2022/08/15 05:40:55;;;;;;;21.05;17.33;;;;;;;;;;6216169;23;20369;-75
2022/08/15 05:43:41;;;;;;;20.77;18.52;;;21.10;99.90;;;;;;6242513;23;20362;-75
2022/08/15 05:46:28;;;;;;;21.65;17.98;;;21.10;99.90;;;;;;6242326;23;20366;-75
2022/08/15 05:49:09;;;;;;;20.98;17.20;;;21.10;99.90;;;;;;6242364;22;20378;-74
2022/08/15 05:52:12;;;;;;;19.90;15.95;;;21.40;99.90;;;;;;6191137;23;20735;-73
2022/08/15 05:55:17;;;;;;;18.45;16.55;;;21.30;99.90;;;;;;6217838;23;20757;-75
2022/08/15 05:58:01;;;;;;;18.38;16.48;;;21.70;99.90;;;;;;6217756;23;20366;-76
2022/08/15 06:00:29;;;;;;;21.27;17.27;;;21.10;99.90;;;;;;6217861;23;20436;-76
2022/08/15 06:03:09;;;;;;;20.08;16.63;;;21.40;99.90;;;;;;6217789;23;20358;-77
2022/08/15 06:05:52;;;;;;;21.75;16.77;;;21.30;99.90;;;;;;6216820;23;20366;-75
2022/08/15 06:08:24;;;;;;;18.08;16.33;;;21.30;99.90;;;;;;6193125;23;20370;-76
2022/08/15 06:10:55;;;;;;;17.80;16.00;;;21.40;99.90;;;;;;6216904;23;20362;-76
2022/08/15 06:13:25;;;;;;;18.25;16.30;;;21.60;99.90;;;;;;6216755;23;20373;-76
2022/08/15 06:16:06;;;;;;;18.52;16.55;;;21.50;99.90;;;;;;6216862;23;20374;-76
2022/08/15 06:18:35;;;;;;;19.63;16.45;;;21.40;99.90;;;;;;6191861;23;20394;-77
2022/08/15 06:21:21;;;;;;;18.10;16.00;;;21.60;99.90;;;;;;6216501;23;20395;-76
2022/08/15 06:23:54;;;;;;;17.67;15.85;;;21.80;99.90;;;;;;6216475;23;20362;-76
2022/08/15 06:26:47;;;;;;;20.25;16.17;;;21.70;99.90;;;;;;6216556;23;20372;-77
2022/08/15 06:29:13;;;;;;;17.45;15.65;;;21.70;99.90;;;;;;6191985;23;20668;-76
2022/08/15 06:31:47;;;;;;;17.57;15.67;;;21.70;99.90;;;;;;6215853;23;20424;-77
2022/08/15 06:34:39;;;;;;;17.48;15.48;;;21.80;99.90;;;;;;6215468;23;20369;-77
2022/08/15 06:37:06;;;;;;;16.10;14.40;;;21.90;99.90;;;;;;6217316;23;20736;-77
2022/08/15 06:39:43;;;;;;;16.20;14.50;;;22.10;99.90;;;;;;6216903;23;20396;-77
2022/08/15 06:42:16;;;;;;;16.40;14.70;;;22.50;99.90;;;;;;6216196;23;20428;-77
2022/08/15 06:44:42;;;;;;;16.38;13.77;;;22.40;99.90;;;;;;6192175;23;20445;-77
2022/08/15 06:47:09;;;;;;;15.23;13.27;;;22.90;99.90;;;;;;6217310;23;20366;-78
2022/08/15 06:49:42;;;;;;;16.75;13.80;;;22.80;99.90;;;;;;6224307;23;20394;-77
2022/08/15 06:52:10;;;;;;;15.15;13.55;;;22.60;99.90;;;;;;6241724;23;20843;-77
2022/08/15 06:54:39;;;;;;;17.30;14.38;;;22.70;99.90;;;;;;6244286;22;20358;-77
2022/08/15 06:57:27;;;;;;;20.77;14.18;;;22.90;99.90;;;;;;6243450;22;20465;-78
2022/08/15 07:00:17;;;;;;;20.52;15.55;;;23.20;99.90;;;;;;6241697;23;20398;-79
2022/08/15 07:02:49;;;;;;;17.60;15.35;;;22.90;99.90;;;;;;6216746;23;20370;-78
2022/08/15 07:05:24;;;;;;;17.83;14.17;;;23.10;99.90;;;;;;6241899;23;20362;-77
2022/08/15 07:08:24;;;;;;;21.77;14.95;;;23.40;99.90;;;;;;6241953;23;20369;-77
2022/08/15 07:10:59;;;;;;;22.02;14.88;;;23.30;99.90;;;;;;6184101;23;20366;-77
2022/08/15 07:13:31;;;;;;;17.98;13.98;;;23.70;99.90;;;;;;6242842;23;20369;-77
2022/08/15 07:16:07;;;;;;;18.00;13.45;;;23.70;99.90;;;;;;6246317;23;20397;-74
2022/08/15 07:18:45;;;;;;;14.73;12.52;;;24.10;99.90;;;;;;6240274;23;20393;-74
2022/08/15 07:21:17;;;;;;;15.85;12.48;;;24.10;99.90;;;;;;6241837;23;20366;-75
2022/08/15 07:23:59;;;;;;;16.77;12.43;;;24.60;99.90;;;;;;6215426;23;20424;-74
2022/08/15 07:26:28;;;;;;;15.07;11.88;;;24.40;99.90;;;;;;6241515;23;20366;-74
2022/08/15 07:28:58;;;;;;;16.35;11.85;;;24.70;99.90;;;;;;6240003;23;20477;-74
2022/08/15 07:31:33;;;;;;;11.80;10.52;;;24.60;99.90;;;;;;6241649;22;20376;-78
2022/08/15 07:34:22;;;;;;;13.00;10.35;;;24.80;99.90;;;;;;6241466;23;20366;-79
2022/08/15 07:37:15;;;;;;;12.87;9.97;;;24.90;99.90;;;;;;6217271;23;20680;-78
2022/08/15 07:39:43;;;;;;;13.53;10.50;;;24.80;99.90;;;;;;6241507;23;20397;-79
2022/08/15 07:42:20;;;;;;;12.90;11.13;;;25.10;99.90;;;;;;6191781;23;20373;-79
2022/08/15 07:44:53;;;;;;;11.38;10.27;;;25.10;99.90;;;;;;6215515;23;20444;-79
2022/08/15 07:47:29;;;;;;;14.80;10.47;;;25.40;99.90;;;;;;6242129;23;20764;-79
2022/08/15 07:50:00;;;;;;;12.13;10.70;;;25.60;99.90;;;;;;6240214;22;20393;-79
2022/08/15 07:52:26;;;;;;;12.35;9.80;;;25.90;99.90;;;;;;6240618;23;20380;-81
2022/08/15 07:54:55;;;;;;;12.10;10.27;;;25.80;99.90;;;;;;6242300;23;20445;-80
2022/08/15 07:57:33;;;;;;;11.10;9.73;;;25.70;99.90;;;;;;6217476;23;20377;-80
2022/08/15 08:00:21;;;;;;;11.95;9.63;;;25.80;99.90;;;;;;6241838;23;20393;-80
2022/08/15 08:03:32;;;;;;;15.93;10.82;;;25.70;99.90;;;;;;6240752;23;20369;-79
2022/08/15 08:06:05;;;;;;;12.40;10.65;;;25.70;99.90;;;;;;6242412;23;20523;-79
2022/08/15 08:08:46;;;;;;;12.88;9.95;;;25.80;99.90;;;;;;6216097;23;20373;-78
2022/08/15 08:11:41;;;;;;;13.05;10.55;;;25.90;99.90;;;;;;6242112;23;20370;-79
2022/08/15 08:14:27;;;;;;;12.83;10.67;;;25.70;99.90;;;;;;6228925;23;20369;-78
2022/08/15 08:16:59;;;;;;;13.70;10.75;;;25.80;99.90;;;;;;6216650;23;20859;-78
2022/08/15 08:19:46;;;;;;;13.63;10.80;;;25.40;99.90;;;;;;6240579;23;20393;-79
2022/08/15 08:22:23;;;;;;;14.43;11.65;;;25.20;99.90;;;;;;6240160;23;20362;-78
2022/08/15 08:25:42;;;;;;;14.43;11.10;;;25.40;99.90;;;;;;6237930;23;20373;-78
2022/08/15 08:28:34;;;;;;;13.55;11.35;;;25.20;99.90;;;;;;6092981;23;20463;-77
2022/08/15 08:31:30;;;;;;;13.13;10.68;;;25.00;99.90;;;;;;6235591;23;20373;-77
2022/08/15 08:33:59;;;;;;;12.20;10.32;;;25.10;99.90;;;;;;6240975;23;20661;-77
2022/08/15 08:36:38;;;;;;;15.98;10.93;;;25.30;99.90;;;;;;6217126;23;20366;-78
2022/08/15 08:39:22;;;;;;;14.63;10.40;;;25.20;99.90;;;;;;6243070;22;20439;-74
2022/08/15 08:42:02;;;;;;;13.43;11.43;;;25.60;99.90;;;;;;6241297;23;20366;-74
2022/08/15 08:44:47;;;;;;;12.97;11.63;;;25.50;99.90;;;;;;6214836;23;20866;-74
2022/08/15 08:47:55;;;;;;;13.15;11.40;;;25.60;99.90;;;;;;6242288;23;20366;-75
2022/08/15 08:50:48;;;;;;;13.68;10.80;;;25.50;99.90;;;;;;6241319;23;20482;-75
2022/08/15 08:53:30;;;;;;;11.70;10.48;;;25.40;99.90;;;;;;6216254;23;20385;-75
2022/08/15 08:56:14;;;;;;;15.02;11.05;;;25.40;99.90;;;;;;6241183;23;20836;-74
2022/08/15 08:58:57;;;;;;;13.63;10.43;;;25.50;99.90;;;;;;6242443;23;20389;-75
2022/08/15 09:01:26;;;;;;;11.38;10.18;;;25.70;99.90;;;;;;6216910;23;20366;-78
2022/08/15 09:03:57;;;;;;;12.87;10.53;;;26.10;99.90;;;;;;6240310;23;20366;-75
2022/08/15 09:06:31;;;;;;;13.60;11.53;;;26.50;99.90;;;;;;6243429;22;20354;-75
2022/08/15 09:09:18;;;;;;;15.73;11.43;;;26.70;99.90;;;;;;6243727;23;20675;-75
2022/08/15 09:14:52;;;;;;;13.50;10.68;;;27.40;99.90;;;;;;6242110;23;20362;-75
2022/08/15 09:17:20;;;;;;;13.53;11.50;;;27.30;99.90;;;;;;6241314;22;20407;-75
2022/08/15 09:20:10;;;;;;;11.13;10.02;;;27.20;99.90;;;;;;6243739;22;20407;-75
2022/08/15 09:22:36;;;;;;;13.48;11.38;;;27.80;99.90;;;;;;6243485;22;20358;-76
2022/08/15 09:25:02;;;;;;;11.73;9.98;;;27.40;99.90;;;;;;6241962;22;20358;-76
2022/08/15 09:27:54;;;;;;;13.57;11.27;;;27.90;99.90;;;;;;6238653;23;20397;-76
2022/08/15 09:30:20;;;;;;;11.48;10.27;;;28.40;99.90;;;;;;6238872;23;20370;-77
2022/08/15 09:33:09;;;;;;;13.68;11.00;;;27.50;99.90;;;;;;6216862;23;20442;-76
2022/08/15 09:35:47;;;;;;;13.55;10.90;;;27.50;99.90;;;;;;6222147;23;20901;-76
2022/08/15 09:38:39;;;;;;;15.48;11.07;;;27.90;99.90;;;;;;6242320;23;20394;-76
2022/08/15 09:41:20;;;;;;;14.47;11.40;;;27.90;99.90;;;;;;6199350;23;20432;-76
2022/08/15 09:44:24;;;;;;;13.27;11.38;;;27.80;99.90;;;;;;6241988;23;20908;-76
2022/08/15 09:47:02;;;;;;;13.73;10.05;;;26.10;99.90;;;;;;6243391;22;20358;-75
2022/08/15 09:49:55;;;;;;;17.15;10.93;;;27.80;99.90;;;;;;6217620;23;20390;-76
2022/08/15 09:52:24;;;;;;;12.35;10.70;;;27.80;99.90;;;;;;6216657;23;20373;-76
2022/08/15 09:54:58;;;;;;;11.25;10.05;;;29.20;99.90;;;;;;6217835;23;20693;-76
2022/08/15 09:57:45;;;;;;;11.80;10.60;;;28.20;99.90;;;;;;6242291;23;20369;-75
2022/08/15 10:00:16;;;;;;;12.15;10.30;;;28.40;99.90;;;;;;6241983;23;20419;-76
2022/08/15 10:02:45;;;;;;;13.65;11.27;;;28.40;99.90;;;;;;6217488;23;20369;-76
2022/08/15 10:05:25;;;;;;;13.55;10.63;;;28.20;99.90;;;;;;6243221;23;20358;-76
2022/08/15 10:07:55;;;;;;;13.73;10.87;;;28.40;99.90;;;;;;6240355;23;20362;-74
2022/08/15 10:10:36;;;;;;;15.37;11.63;;;28.30;99.90;;;;;;6240364;23;20370;-75
2022/08/15 10:13:10;;;;;;;13.25;11.30;;;28.10;99.90;;;;;;6241519;23;20389;-75
2022/08/15 10:15:41;;;;;;;13.00;11.68;;;28.90;99.90;;;;;;6239319;23;20369;-75
2022/08/15 10:18:09;;;;;;;14.32;12.52;;;28.40;99.90;;;;;;6241447;23;20855;-74
2022/08/15 10:20:40;;;;;;;13.43;11.05;;;28.20;99.90;;;;;;6242365;23;20814;-75
2022/08/15 10:23:16;;;;;;;17.30;11.68;;;28.40;99.90;;;;;;6245029;22;20351;-73
2022/08/15 10:25:45;;;;;;;16.80;12.02;;;28.00;99.90;;;;;;6242786;23;20362;-74
2022/08/15 10:28:11;;;;;;;16.38;12.40;;;28.30;99.90;;;;;;6240890;23;20870;-75
2022/08/15 10:31:05;;;;;;;15.43;13.13;;;27.80;99.90;;;;;;6245233;23;20366;-79
2022/08/15 10:33:31;;;;;;;21.15;12.82;;;27.30;99.90;;;;;;6241664;23;20380;-79
2022/08/15 10:36:13;;;;;;;20.83;12.90;;;27.40;99.90;;;;;;6247426;23;20433;-78
2022/08/15 10:38:45;;;;;;;16.67;13.00;;;27.90;99.90;;;;;;6249068;23;20416;-79
2022/08/15 10:41:39;;;;;;;15.70;11.93;;;27.20;99.90;;;;;;6249459;23;20400;-75
2022/08/15 10:44:23;;;;;;;14.30;10.97;;;27.30;99.90;;;;;;6247502;23;20416;-78
2022/08/15 10:47:05;;;;;;;13.15;11.38;;;27.60;99.90;;;;;;6249906;23;20457;-78
2022/08/15 10:49:58;;;;;;;13.52;11.75;;;27.80;99.90;;;;;;6224624;23;20412;-78
2022/08/15 10:52:52;;;;;;;12.77;11.15;;;28.00;99.90;;;;;;6247619;23;20425;-78
2022/08/15 10:55:29;;;;;;;12.45;11.23;;;27.90;99.90;;;;;;6247246;23;20365;-79
2022/08/15 10:58:01;;;;;;;17.93;12.13;;;27.70;99.90;;;;;;6216473;23;20373;-80
2022/08/15 11:00:38;;;;;;;13.17;11.20;;;27.60;99.90;;;;;;6243245;23;20500;-79
2022/08/15 11:03:10;;;;;;;16.90;11.27;;;27.70;99.90;;;;;;6217665;23;20700;-79
2022/08/15 11:05:36;;;;;;;14.02;11.80;;;27.60;99.90;;;;;;6239994;23;20370;-79
2022/08/15 11:08:02;;;;;;;13.73;12.10;;;27.80;99.90;;;;;;6240768;23;20827;-79
2022/08/15 11:10:32;;;;;;;14.23;12.55;;;27.60;99.90;;;;;;6242099;23;20679;-78
2022/08/15 11:13:06;;;;;;;15.40;13.00;;;27.40;99.90;;;;;;6241180;23;20676;-79
2022/08/15 11:15:47;;;;;;;17.63;12.52;;;27.20;99.90;;;;;;6241594;23;20500;-79
2022/08/15 11:18:19;;;;;;;14.70;13.20;;;27.10;99.90;;;;;;6216281;23;20390;-80
2022/08/15 11:20:52;;;;;;;16.05;12.93;;;27.10;99.90;;;;;;6238825;23;20372;-79
2022/08/15 11:23:39;;;;;;;17.85;13.68;;;26.80;99.90;;;;;;6209304;23;20377;-79
2022/08/15 11:26:08;;;;;;;15.18;13.27;;;26.60;99.90;;;;;;6213711;23;20879;-79
2022/08/15 11:28:34;;;;;;;16.80;14.48;;;26.60;99.90;;;;;;6241737;23;20405;-81
2022/08/15 11:31:05;;;;;;;16.63;14.15;;;26.10;99.90;;;;;;6216414;23;20735;-77
2022/08/15 11:33:40;;;;;;;18.95;14.80;;;26.00;99.90;;;;;;6239423;23;20369;-77
2022/08/15 11:36:17;;;;;;;15.38;13.10;;;25.40;99.90;;;;;;6242066;23;20372;-78
2022/08/15 11:38:50;;;;;;;15.07;12.48;;;25.20;99.90;;;;;;6241822;23;20800;-77
2022/08/15 11:41:27;;;;;;;12.68;11.35;;;25.60;99.90;;;;;;6213937;23;20365;-76
2022/08/15 11:43:57;;;;;;;14.07;12.68;;;25.60;99.90;;;;;;6239235;23;20362;-74
2022/08/15 11:46:24;;;;;;;14.25;12.43;;;25.70;99.90;;;;;;6241014;23;20373;-77
2022/08/15 11:49:06;;;;;;;13.45;12.10;;;25.70;99.90;;;;;;6215451;23;20385;-75
2022/08/15 11:51:38;;;;;;;13.75;12.25;;;25.80;99.90;;;;;;6189720;23;20381;-77
2022/08/15 11:54:12;;;;;;;13.48;11.82;;;26.10;99.90;;;;;;6189640;23;20373;-77
2022/08/15 11:57:01;;;;;;;15.02;13.50;;;26.30;99.90;;;;;;6215261;23;20456;-77
2022/08/15 11:59:32;;;;;;;13.05;11.75;;;26.30;99.90;;;;;;6215763;23;20385;-78
2022/08/15 12:02:19;;;;;;;10.52;9.43;;;25.60;99.90;;;;;;6215252;23;20370;-78
2022/08/15 12:04:47;;;;;;;10.43;8.77;;;26.30;99.90;;;;;;6188399;23;20374;-78
2022/08/15 12:07:23;;;;;;;13.60;9.30;;;26.40;99.90;;;;;;6214664;23;20369;-78
2022/08/15 12:09:51;;;;;;;24.63;11.45;;;26.50;99.90;;;;;;6213773;23;20435;-77
2022/08/15 12:12:31;;;;;;;10.30;8.38;;;26.50;99.90;;;;;;6189657;23;20377;-80
2022/08/15 12:15:06;;;;;;;12.05;8.68;;;26.20;99.90;;;;;;6190751;23;20373;-76
2022/08/15 12:17:33;;;;;;;9.57;8.15;;;26.20;99.90;;;;;;6189164;23;20696;-77
2022/08/15 12:19:58;;;;;;;8.90;8.00;;;26.20;99.90;;;;;;6191600;23;20455;-77
2022/08/15 12:22:37;;;;;;;10.15;8.20;;;26.20;99.90;;;;;;6188717;23;20441;-77
2022/08/15 12:25:05;;;;;;;9.95;8.13;;;26.30;99.90;;;;;;6215788;23;20366;-78
2022/08/15 12:27:32;;;;;;;8.63;7.82;;;26.30;99.90;;;;;;6216012;23;20365;-78
2022/08/15 12:29:57;;;;;;;8.30;7.40;;;26.50;99.90;;;;;;6215223;23;20370;-78
2022/08/15 12:32:23;;;;;;;9.68;7.50;;;26.60;99.90;;;;;;6214637;23;20831;-77
2022/08/15 12:34:54;;;;;;;8.80;7.77;;;26.40;99.90;;;;;;6193115;23;20366;-77
2022/08/15 12:37:25;;;;;;;9.55;7.53;;;26.60;99.90;;;;;;6217746;23;20406;-77
2022/08/15 12:39:59;;;;;;;9.75;7.55;;;26.80;99.90;;;;;;6193763;23;20556;-77
2022/08/15 12:42:32;;;;;;;9.40;7.65;;;26.90;99.90;;;;;;6219143;23;20399;-78
2022/08/15 12:45:06;;;;;;;8.50;7.60;;;27.10;99.90;;;;;;6220785;23;20436;-78
2022/08/15 12:47:33;;;;;;;8.95;7.57;;;27.30;99.90;;;;;;6194006;23;20379;-77
2022/08/15 12:50:06;;;;;;;8.52;7.50;;;27.60;99.90;;;;;;6205998;23;20390;-78
2022/08/15 12:52:32;;;;;;;7.53;6.70;;;27.50;99.90;;;;;;6243264;23;20467;-77
2022/08/15 12:54:57;;;;;;;9.20;7.10;;;27.80;99.90;;;;;;6242717;23;20369;-76
2022/08/15 12:57:25;;;;;;;8.05;7.25;;;27.90;99.90;;;;;;6217378;23;20371;-78
2022/08/15 12:59:50;;;;;;;8.10;7.30;;;28.00;99.90;;;;;;6243064;23;20432;-77
2022/08/15 13:02:17;;;;;;;11.57;8.73;;;28.00;99.90;;;;;;6217804;23;20882;-77
2022/08/15 13:04:47;;;;;;;12.73;9.18;;;28.50;99.90;;;;;;6240194;23;20397;-78
2022/08/15 13:07:14;;;;;;;12.30;9.90;;;26.60;99.90;;;;;;6242457;23;20362;-78
2022/08/15 13:09:41;;;;;;;11.75;10.55;;;28.10;99.90;;;;;;6243117;23;20365;-77